Time;durP1;ratioP1;P1;durP2;ratioP2;P2;SDS_P1;SDS_P2;PMS_P1;PMS_P2;Temp;Humidity;BMP_temperature;BMP_pressure;BME280_temperature;BME280_humidity;BME280_pressure;Samples;Min_cycle;Max_cycle;Signal;HPM_P1;HPM_P2
2021/07/25 00:00:38;;;;;;;3.83;3.20;;;20.50;99.90;;;;;;5108586;28;20410;-83
2021/07/25 00:03:04;;;;;;;6.53;3.33;;;20.00;99.90;;;;;;5090992;28;20393;-83
2021/07/25 00:05:30;;;;;;;4.60;4.13;;;19.50;99.90;;;;;;5107918;28;20397;-84
2021/07/25 00:07:57;;;;;;;4.03;3.33;;;19.20;99.90;;;;;;5088734;28;20878;-83
2021/07/25 00:10:22;;;;;;;9.03;7.77;;;19.10;99.90;;;;;;5089743;28;20585;-83
2021/07/25 00:12:48;;;;;;;4.87;4.37;;;19.40;99.90;;;;;;5089338;28;20418;-83
2021/07/25 00:15:14;;;;;;;5.20;4.30;;;19.20;99.90;;;;;;5107145;28;20177;-83
2021/07/25 00:17:39;;;;;;;5.20;4.70;;;19.30;99.90;;;;;;5107345;28;20159;-81
2021/07/25 00:20:07;;;;;;;5.10;3.90;;;19.20;99.90;;;;;;5108192;28;20178;-82
2021/07/25 00:22:33;;;;;;;8.40;3.67;;;19.10;99.90;;;;;;5107687;28;20163;-84
2021/07/25 00:25:08;;;;;;;5.10;4.10;;;19.10;99.90;;;;;;5106918;28;20411;-84
2021/07/25 00:27:34;;;;;;;11.33;4.97;;;18.90;99.90;;;;;;5105826;28;20257;-84
2021/07/25 00:30:01;;;;;;;8.07;4.40;;;18.90;99.90;;;;;;5105040;28;20400;-82
2021/07/25 00:32:26;;;;;;;6.40;4.07;;;19.00;99.90;;;;;;5104593;28;20483;-83
2021/07/25 00:34:53;;;;;;;6.37;5.00;;;18.80;99.90;;;;;;5105177;28;20404;-84
2021/07/25 00:37:20;;;;;;;5.20;4.40;;;18.80;99.90;;;;;;5087481;28;20155;-83
2021/07/25 00:39:46;;;;;;;4.80;4.30;;;19.00;99.90;;;;;;5104792;28;20456;-84
2021/07/25 00:42:11;;;;;;;5.67;5.13;;;19.00;99.90;;;;;;5106099;28;20415;-83
2021/07/25 00:44:37;;;;;;;12.43;5.40;;;19.00;99.90;;;;;;5106016;28;20163;-83
2021/07/25 00:47:03;;;;;;;4.57;4.10;;;18.90;99.90;;;;;;5086809;28;20169;-81
2021/07/25 00:49:29;;;;;;;5.60;4.97;;;18.80;99.90;;;;;;5105604;28;20202;-83
2021/07/25 00:51:55;;;;;;;5.83;4.37;;;18.80;99.90;;;;;;5105081;28;20163;-83
2021/07/25 00:54:21;;;;;;;8.33;4.80;;;18.80;99.90;;;;;;5087740;28;20397;-81
2021/07/25 00:56:47;;;;;;;4.60;4.10;;;18.80;99.90;;;;;;5105802;28;20163;-83
2021/07/25 00:59:13;;;;;;;9.70;5.03;;;18.90;99.90;;;;;;5105689;28;20891;-83
2021/07/25 01:01:39;;;;;;;8.67;4.50;;;19.10;99.90;;;;;;5106388;28;20518;-83
2021/07/25 01:04:36;;;;;;;4.80;4.30;;;19.30;99.90;;;;;;5087178;28;20191;-81
2021/07/25 01:07:13;;;;;;;4.17;3.77;;;19.40;99.90;;;;;;5091738;28;20193;-83
2021/07/25 01:10:03;;;;;;;7.33;4.30;;;19.50;99.90;;;;;;5105029;28;20539;-84
2021/07/25 01:12:52;;;;;;;10.63;4.67;;;19.50;99.90;;;;;;5104478;28;20385;-84
2021/07/25 01:15:23;;;;;;;6.83;4.43;;;19.60;99.90;;;;;;5104932;28;20400;-83
2021/07/25 01:17:50;;;;;;;6.20;4.83;;;19.40;99.90;;;;;;5104610;28;20392;-83
2021/07/25 01:20:15;;;;;;;6.13;3.83;;;19.00;99.90;;;;;;5104129;28;20389;-83
2021/07/25 01:22:46;;;;;;;4.30;3.80;;;18.70;99.90;;;;;;5086115;28;20401;-83
2021/07/25 01:25:14;;;;;;;4.87;4.40;;;18.50;99.90;;;;;;5104385;28;20663;-83
2021/07/25 01:27:47;;;;;;;4.37;3.93;;;18.50;99.90;;;;;;5104966;28;20480;-83
2021/07/25 01:30:17;;;;;;;5.23;4.17;;;18.40;99.90;;;;;;5105084;28;20460;-83
2021/07/25 01:32:44;;;;;;;4.80;3.97;;;18.50;99.90;;;;;;5104947;28;20396;-84
2021/07/25 01:35:13;;;;;;;7.20;5.70;;;18.70;99.90;;;;;;5104716;28;20389;-83
2021/07/25 01:37:39;;;;;;;7.43;4.80;;;18.60;99.90;;;;;;5103694;28;20408;-83
2021/07/25 01:40:16;;;;;;;5.77;4.90;;;18.90;99.90;;;;;;5103956;28;20460;-83
2021/07/25 01:42:42;;;;;;;5.93;4.53;;;18.80;99.90;;;;;;5085507;28;20166;-84
2021/07/25 01:45:08;;;;;;;7.63;6.10;;;18.80;99.90;;;;;;5103720;28;20400;-84
2021/07/25 01:47:36;;;;;;;10.20;5.13;;;18.60;99.90;;;;;;5103990;28;20455;-83
2021/07/25 01:50:01;;;;;;;7.20;5.57;;;18.30;99.90;;;;;;5103929;28;20472;-82
2021/07/25 01:52:27;;;;;;;6.67;5.40;;;18.30;99.90;;;;;;5104269;28;20731;-84
2021/07/25 01:54:53;;;;;;;7.93;5.87;;;18.20;99.90;;;;;;5103912;28;20657;-83
2021/07/25 01:57:18;;;;;;;5.40;4.90;;;18.20;99.90;;;;;;5104671;28;20392;-81
2021/07/25 01:59:44;;;;;;;6.07;5.37;;;18.10;99.90;;;;;;5105177;28;20158;-83
2021/07/25 02:02:09;;;;;;;6.50;5.10;;;18.10;99.90;;;;;;5101428;28;20518;-84
2021/07/25 02:04:35;;;;;;;7.23;5.80;;;17.90;99.90;;;;;;5098358;28;20161;-84
2021/07/25 02:07:00;;;;;;;5.77;5.17;;;17.90;99.90;;;;;;5080697;28;20158;-84
2021/07/25 02:09:26;;;;;;;6.93;5.27;;;18.00;99.90;;;;;;5098913;28;20214;-84
2021/07/25 02:11:53;;;;;;;6.57;5.40;;;18.10;99.90;;;;;;5098547;28;20166;-84
2021/07/25 02:14:18;;;;;;;5.73;5.00;;;17.90;99.90;;;;;;5099447;28;20162;-84
2021/07/25 02:16:44;;;;;;;5.87;5.30;;;18.10;99.90;;;;;;5082629;28;20901;-84
2021/07/25 02:19:09;;;;;;;7.33;5.63;;;18.30;99.90;;;;;;5101379;28;20208;-84
2021/07/25 02:21:35;;;;;;;6.23;5.57;;;18.30;99.90;;;;;;5113724;28;20166;-82
2021/07/25 02:24:00;;;;;;;5.70;4.93;;;18.20;99.90;;;;;;5116621;28;20588;-83
2021/07/25 02:26:26;;;;;;;6.10;5.00;;;18.30;99.90;;;;;;5116918;28;20158;-83
2021/07/25 02:28:51;;;;;;;6.40;4.03;;;18.10;99.90;;;;;;5117658;28;20219;-82
2021/07/25 02:31:17;;;;;;;6.33;5.47;;;18.10;99.90;;;;;;5099493;28;20175;-82
2021/07/25 02:33:43;;;;;;;7.40;4.90;;;18.00;99.90;;;;;;5117179;28;20200;-82
2021/07/25 02:36:08;;;;;;;6.80;4.80;;;18.10;99.90;;;;;;5117528;28;20432;-82
2021/07/25 02:38:37;;;;;;;5.80;4.73;;;18.20;99.90;;;;;;5117620;28;20161;-82
2021/07/25 02:41:02;;;;;;;6.67;5.93;;;18.00;99.90;;;;;;5116281;28;20242;-84
2021/07/25 02:43:28;;;;;;;27.63;6.27;;;17.90;99.90;;;;;;5101167;28;20483;-84
2021/07/25 02:45:53;;;;;;;8.33;5.57;;;17.90;99.90;;;;;;5076498;28;20265;-84
2021/07/25 02:48:19;;;;;;;9.77;4.53;;;17.70;99.90;;;;;;5091330;28;20182;-84
2021/07/25 02:50:44;;;;;;;6.70;4.27;;;17.60;99.90;;;;;;5080694;28;20205;-84
2021/07/25 02:53:10;;;;;;;8.47;5.20;;;17.70;99.90;;;;;;5098445;28;20250;-84
2021/07/25 02:55:35;;;;;;;8.63;5.63;;;17.80;99.90;;;;;;5097806;28;20542;-83
2021/07/25 02:58:01;;;;;;;4.70;4.30;;;17.90;99.90;;;;;;5097596;28;20163;-83
2021/07/25 03:00:27;;;;;;;5.50;4.77;;;18.00;99.90;;;;;;5098206;28;20167;-84
2021/07/25 03:02:56;;;;;;;5.80;5.20;;;18.00;99.90;;;;;;5097129;28;20166;-84
2021/07/25 03:05:22;;;;;;;8.43;5.53;;;18.00;99.90;;;;;;5079265;28;20204;-84
2021/07/25 03:07:47;;;;;;;8.47;5.83;;;18.10;99.90;;;;;;5097490;28;20544;-84
2021/07/25 03:10:13;;;;;;;6.20;5.63;;;18.00;99.90;;;;;;5097906;28;20382;-82
2021/07/25 03:12:40;;;;;;;7.10;5.20;;;17.80;99.90;;;;;;5097009;28;20166;-84
2021/07/25 03:15:06;;;;;;;5.70;5.17;;;17.70;99.90;;;;;;5097397;28;20163;-84
2021/07/25 03:17:31;;;;;;;9.70;5.20;;;17.60;99.90;;;;;;5098532;28;20391;-84
2021/07/25 03:19:57;;;;;;;5.70;4.70;;;17.50;99.90;;;;;;5085501;28;20417;-82
2021/07/25 03:22:23;;;;;;;8.60;6.20;;;17.70;99.90;;;;;;5117307;28;20169;-82
2021/07/25 03:24:48;;;;;;;10.33;6.83;;;17.60;99.90;;;;;;5111565;28;20147;-84
2021/07/25 03:27:14;;;;;;;7.70;5.43;;;17.60;99.90;;;;;;5101817;28;20159;-84
2021/07/25 03:29:39;;;;;;;7.90;6.57;;;17.60;99.90;;;;;;5101025;28;20209;-84
2021/07/25 03:32:05;;;;;;;5.43;4.90;;;17.60;99.90;;;;;;5100734;28;20155;-84
2021/07/25 03:34:33;;;;;;;6.70;6.00;;;17.40;99.90;;;;;;5101472;28;20248;-84
2021/07/25 03:37:01;;;;;;;6.70;5.70;;;17.50;99.90;;;;;;5101317;28;20235;-84
2021/07/25 03:39:27;;;;;;;9.13;8.10;;;17.50;99.90;;;;;;5100498;28;20471;-84
2021/07/25 03:41:53;;;;;;;7.23;6.23;;;17.40;99.90;;;;;;5083490;28;20397;-84
2021/07/25 03:44:20;;;;;;;11.70;6.60;;;17.50;99.90;;;;;;5101130;28;20595;-84
2021/07/25 03:46:45;;;;;;;9.10;5.60;;;17.60;99.90;;;;;;5100763;28;20400;-84
2021/07/25 03:49:12;;;;;;;6.73;5.70;;;17.60;99.90;;;;;;5100760;28;20449;-84
2021/07/25 03:51:38;;;;;;;7.83;5.47;;;17.60;99.90;;;;;;5100369;28;20151;-84
2021/07/25 03:54:07;;;;;;;6.73;5.23;;;17.50;99.90;;;;;;5100089;28;20396;-84
2021/07/25 03:56:35;;;;;;;8.90;5.63;;;17.50;99.90;;;;;;5100526;28;20162;-83
2021/07/25 03:59:00;;;;;;;10.23;5.50;;;17.50;99.90;;;;;;5100876;28;20400;-83
2021/07/25 04:01:26;;;;;;;7.37;6.03;;;17.70;99.90;;;;;;5100270;28;20401;-84
2021/07/25 04:03:51;;;;;;;8.57;6.40;;;17.80;99.90;;;;;;5099882;28;20173;-85
2021/07/25 04:06:16;;;;;;;6.23;5.47;;;17.90;99.90;;;;;;5099915;28;20155;-84
2021/07/25 04:08:42;;;;;;;9.00;6.03;;;18.00;99.90;;;;;;5056787;28;20321;-85
2021/07/25 04:11:08;;;;;;;9.67;6.30;;;18.00;99.90;;;;;;5057232;28;20176;-84
2021/07/25 04:13:33;;;;;;;8.93;6.40;;;17.90;99.90;;;;;;5040743;28;20176;-84
2021/07/25 04:15:59;;;;;;;7.93;6.33;;;17.90;99.90;;;;;;5057254;28;20156;-83
2021/07/25 04:18:25;;;;;;;6.57;5.77;;;18.00;99.90;;;;;;5040878;28;20183;-84
2021/07/25 04:20:51;;;;;;;10.37;7.57;;;18.10;99.90;;;;;;5057073;28;20402;-83
2021/07/25 04:23:16;;;;;;;6.20;5.37;;;17.90;99.90;;;;;;5024092;28;20215;-83
2021/07/25 04:25:42;;;;;;;8.90;6.37;;;17.90;99.90;;;;;;5057595;28;20232;-84
2021/07/25 04:28:08;;;;;;;9.33;6.50;;;17.90;99.90;;;;;;5056837;28;20225;-84
2021/07/25 04:30:36;;;;;;;8.57;6.30;;;17.90;99.90;;;;;;5056669;28;20224;-84
2021/07/25 04:33:02;;;;;;;8.00;6.53;;;17.90;99.90;;;;;;5057023;28;20156;-84
2021/07/25 04:35:30;;;;;;;10.13;6.63;;;17.90;99.90;;;;;;5023959;28;20872;-83
2021/07/25 04:37:56;;;;;;;6.20;5.60;;;18.00;99.90;;;;;;5056405;28;20402;-84
2021/07/25 04:40:24;;;;;;;15.40;6.40;;;17.90;99.90;;;;;;5089448;28;20461;-84
2021/07/25 04:42:53;;;;;;;7.60;6.53;;;17.90;99.90;;;;;;5099224;28;20169;-84
2021/07/25 04:45:42;;;;;;;11.83;7.63;;;17.80;99.90;;;;;;5099136;28;20400;-84
2021/07/25 04:48:36;;;;;;;7.53;5.87;;;17.80;99.90;;;;;;5098975;28;20476;-84
2021/07/25 04:51:06;;;;;;;9.10;6.80;;;18.00;99.90;;;;;;5098634;28;20389;-82
2021/07/25 04:53:37;;;;;;;8.07;6.90;;;18.00;99.90;;;;;;5080525;28;20397;-84
2021/07/25 04:56:03;;;;;;;14.37;8.37;;;17.80;99.90;;;;;;5098833;28;20436;-82
2021/07/25 04:58:54;;;;;;;8.77;7.97;;;17.90;99.90;;;;;;5098978;28;20746;-84
2021/07/25 05:01:30;;;;;;;7.43;6.70;;;17.90;99.90;;;;;;5084377;28;20465;-84
2021/07/25 05:03:56;;;;;;;7.73;6.23;;;18.10;99.90;;;;;;5099034;28;20396;-84
2021/07/25 05:06:22;;;;;;;10.10;7.70;;;18.20;99.90;;;;;;5063120;28;20466;-84
2021/07/25 05:08:48;;;;;;;10.27;8.40;;;18.40;99.90;;;;;;5098582;28;20206;-83
2021/07/25 05:11:21;;;;;;;8.27;6.90;;;18.50;99.90;;;;;;5099021;28;20445;-84
2021/07/25 05:13:53;;;;;;;7.83;6.57;;;18.50;99.90;;;;;;5098500;28;20197;-83
2021/07/25 05:16:27;;;;;;;8.07;7.20;;;18.20;99.90;;;;;;5100576;28;20676;-84
2021/07/25 05:19:19;;;;;;;8.27;6.50;;;18.30;99.90;;;;;;5083087;28;20385;-85
2021/07/25 05:21:51;;;;;;;8.13;7.23;;;18.40;99.90;;;;;;5100260;28;20393;-85
2021/07/25 05:24:21;;;;;;;8.47;7.03;;;18.40;99.90;;;;;;5081821;28;20437;-85
2021/07/25 05:26:48;;;;;;;10.93;6.83;;;18.30;99.90;;;;;;5099990;28;20393;-84
2021/07/25 05:29:18;;;;;;;8.47;6.80;;;18.50;99.90;;;;;;5099562;28;20524;-84
2021/07/25 05:31:44;;;;;;;9.80;7.37;;;18.50;99.90;;;;;;5048064;28;20771;-82
2021/07/25 05:34:10;;;;;;;8.10;6.30;;;18.40;99.90;;;;;;5099396;28;20397;-83
2021/07/25 05:36:35;;;;;;;12.10;7.47;;;18.60;99.90;;;;;;5099474;28;20188;-84
2021/07/25 05:39:01;;;;;;;8.37;6.73;;;18.50;99.90;;;;;;5081172;28;20229;-83
2021/07/25 05:41:26;;;;;;;10.20;6.50;;;18.40;99.90;;;;;;5098832;28;20262;-84
2021/07/25 05:43:52;;;;;;;8.00;6.93;;;18.50;99.90;;;;;;5081785;28;20291;-84
2021/07/25 05:46:17;;;;;;;9.00;7.93;;;18.50;99.90;;;;;;5098749;28;20591;-84
2021/07/25 05:48:43;;;;;;;8.37;6.87;;;18.30;99.90;;;;;;5099608;28;20291;-82
2021/07/25 05:51:09;;;;;;;7.50;6.27;;;18.50;99.90;;;;;;5099539;28;20158;-82
2021/07/25 05:53:34;;;;;;;8.90;7.37;;;18.60;99.90;;;;;;5099330;28;20163;-82
2021/07/25 05:56:00;;;;;;;10.97;7.03;;;18.90;99.90;;;;;;5099060;28;20159;-84
2021/07/25 05:58:28;;;;;;;17.70;8.00;;;19.10;99.90;;;;;;5098660;28;20170;-84
2021/07/25 06:00:54;;;;;;;7.27;5.90;;;19.20;99.90;;;;;;5098620;28;20287;-83
2021/07/25 06:03:22;;;;;;;7.90;7.10;;;19.20;99.90;;;;;;5063287;28;20856;-84
2021/07/25 06:05:48;;;;;;;8.50;6.47;;;19.30;99.90;;;;;;5098695;28;20392;-84
2021/07/25 06:08:13;;;;;;;8.23;6.97;;;19.40;99.90;;;;;;5098896;28;20202;-82
2021/07/25 06:10:42;;;;;;;9.07;6.60;;;19.70;99.90;;;;;;5099111;28;20216;-84
2021/07/25 06:13:08;;;;;;;12.00;6.97;;;19.70;99.90;;;;;;5100393;28;20155;-83
2021/07/25 06:15:37;;;;;;;8.17;7.30;;;19.50;99.90;;;;;;5098792;28;20546;-84
2021/07/25 06:18:05;;;;;;;8.77;6.00;;;19.70;99.90;;;;;;5082288;28;20761;-82
2021/07/25 06:20:31;;;;;;;10.63;6.57;;;19.90;99.90;;;;;;5100047;28;20456;-84
2021/07/25 06:22:57;;;;;;;11.33;7.40;;;20.20;99.90;;;;;;5106504;28;20381;-83
2021/07/25 06:25:26;;;;;;;6.67;6.00;;;20.30;99.90;;;;;;5100354;28;20162;-83
2021/07/25 06:27:54;;;;;;;6.60;5.90;;;20.10;99.90;;;;;;5108104;28;20448;-84
2021/07/25 06:30:21;;;;;;;7.83;6.87;;;20.30;99.90;;;;;;5098573;28;20469;-84
2021/07/25 06:33:05;;;;;;;9.37;6.50;;;20.30;99.90;;;;;;5098540;28;20384;-85
2021/07/25 06:35:34;;;;;;;7.53;6.83;;;20.10;99.90;;;;;;5098585;28;20388;-84
2021/07/25 06:38:02;;;;;;;9.30;6.37;;;20.40;99.90;;;;;;5098638;28;20400;-84
2021/07/25 06:40:29;;;;;;;10.20;6.30;;;20.40;99.90;;;;;;5097459;28;20452;-84
2021/07/25 06:42:57;;;;;;;6.47;5.87;;;20.30;99.90;;;;;;5098960;28;20396;-84
2021/07/25 06:45:23;;;;;;;9.40;6.90;;;20.20;99.90;;;;;;5098123;28;20385;-84
2021/07/25 06:47:50;;;;;;;7.83;6.13;;;20.30;99.90;;;;;;5098634;28;20570;-84
2021/07/25 06:50:19;;;;;;;7.07;6.37;;;20.40;99.90;;;;;;5097883;28;20389;-84
2021/07/25 06:52:45;;;;;;;9.57;6.07;;;20.30;99.90;;;;;;5101680;28;20389;-84
2021/07/25 06:55:11;;;;;;;15.53;7.20;;;20.20;99.90;;;;;;5103824;28;20377;-84
2021/07/25 06:57:37;;;;;;;7.97;6.63;;;20.10;99.90;;;;;;5101854;28;20162;-84
2021/07/25 07:00:04;;;;;;;10.77;6.70;;;20.20;99.90;;;;;;5102308;28;20159;-84
2021/07/25 07:02:45;;;;;;;14.70;8.60;;;20.20;99.90;;;;;;5102887;28;20170;-84
2021/07/25 07:05:11;;;;;;;10.77;6.67;;;20.40;99.90;;;;;;5109116;28;20418;-81
2021/07/25 07:07:36;;;;;;;15.20;6.37;;;20.30;99.90;;;;;;5117553;28;20393;-80
2021/07/25 07:10:02;;;;;;;7.40;6.47;;;20.50;99.90;;;;;;5115728;28;20240;-83
2021/07/25 07:12:27;;;;;;;7.53;6.83;;;20.50;99.90;;;;;;5110071;28;20222;-84
2021/07/25 07:14:54;;;;;;;8.00;6.43;;;20.70;99.90;;;;;;5112369;28;20163;-84
2021/07/25 07:17:22;;;;;;;7.77;6.33;;;20.70;99.90;;;;;;5113945;28;20166;-84
2021/07/25 07:19:48;;;;;;;7.90;7.10;;;20.70;99.90;;;;;;5114842;28;20392;-84
2021/07/25 07:22:26;;;;;;;13.13;7.63;;;20.60;99.90;;;;;;5116485;28;20832;-84
2021/07/25 07:24:53;;;;;;;13.30;8.60;;;20.70;99.90;;;;;;5117231;28;20400;-84
2021/07/25 07:27:21;;;;;;;8.90;5.93;;;20.50;99.90;;;;;;5117684;28;20475;-84
2021/07/25 07:29:52;;;;;;;9.60;6.77;;;20.90;99.90;;;;;;5117355;28;20392;-84
2021/07/25 07:32:18;;;;;;;9.27;7.30;;;21.00;99.90;;;;;;5110887;28;20377;-84
2021/07/25 07:34:43;;;;;;;11.40;7.23;;;21.00;99.90;;;;;;5104852;28;20395;-84
2021/07/25 07:37:09;;;;;;;12.03;7.73;;;21.20;99.90;;;;;;5105069;28;20155;-85
2021/07/25 07:39:37;;;;;;;10.30;7.67;;;21.00;99.90;;;;;;5106470;28;20248;-84
2021/07/25 07:42:03;;;;;;;8.67;7.77;;;21.10;99.90;;;;;;5105701;28;20215;-83
2021/07/25 07:44:29;;;;;;;9.93;7.50;;;21.00;99.90;;;;;;5106586;28;20404;-84
2021/07/25 07:46:54;;;;;;;9.77;6.87;;;21.20;99.90;;;;;;5105219;28;20396;-83
2021/07/25 07:49:20;;;;;;;9.97;6.93;;;21.30;99.90;;;;;;5103738;28;20190;-84
2021/07/25 07:51:45;;;;;;;8.10;7.30;;;21.60;99.90;;;;;;5111130;28;20147;-83
2021/07/25 07:54:14;;;;;;;10.33;7.77;;;21.60;99.90;;;;;;5090367;28;20162;-83
2021/07/25 07:56:39;;;;;;;10.03;7.70;;;21.70;99.90;;;;;;5108514;28;20377;-83
2021/07/25 07:59:05;;;;;;;9.50;7.93;;;21.70;99.90;;;;;;5102321;28;20159;-84
2021/07/25 08:01:30;;;;;;;9.53;7.77;;;22.10;99.90;;;;;;5102016;28;20287;-83
2021/07/25 08:03:56;;;;;;;16.67;7.93;;;22.00;99.90;;;;;;5100670;28;20159;-84
2021/07/25 08:06:22;;;;;;;10.80;6.70;;;22.20;99.90;;;;;;5067355;28;20637;-84
2021/07/25 08:08:47;;;;;;;11.70;7.90;;;22.50;99.90;;;;;;5082934;28;20202;-84
2021/07/25 08:11:12;;;;;;;10.37;9.17;;;22.40;99.90;;;;;;5101284;28;20158;-83
2021/07/25 08:13:38;;;;;;;9.00;8.10;;;22.50;99.90;;;;;;5101633;28;20159;-84
2021/07/25 08:16:05;;;;;;;12.60;7.83;;;22.50;99.90;;;;;;5100961;28;20166;-84
2021/07/25 08:18:32;;;;;;;14.83;8.53;;;21.80;99.90;;;;;;5100824;28;20170;-85
2021/07/25 08:20:58;;;;;;;11.83;7.43;;;22.20;99.90;;;;;;5100828;28;20393;-85
2021/07/25 08:23:23;;;;;;;10.57;8.07;;;22.60;99.90;;;;;;5100630;28;20903;-85
2021/07/25 08:25:49;;;;;;;9.60;8.70;;;22.30;99.90;;;;;;5101646;28;20568;-85
2021/07/25 08:28:15;;;;;;;9.83;8.07;;;22.50;99.90;;;;;;5082414;28;20273;-85
2021/07/25 08:30:41;;;;;;;10.83;8.03;;;22.70;99.90;;;;;;5082201;28;20166;-84
2021/07/25 08:33:06;;;;;;;11.17;8.90;;;22.50;99.90;;;;;;5101510;28;20396;-84
2021/07/25 08:35:32;;;;;;;10.83;8.53;;;22.30;99.90;;;;;;5066298;28;20254;-84
2021/07/25 08:37:57;;;;;;;9.63;7.50;;;22.30;99.90;;;;;;5100650;28;20186;-85
2021/07/25 08:40:25;;;;;;;8.60;6.80;;;22.40;99.90;;;;;;5081629;28;20695;-85
2021/07/25 08:43:08;;;;;;;10.50;7.80;;;22.50;99.90;;;;;;5100485;28;20254;-85
2021/07/25 08:45:35;;;;;;;11.20;9.03;;;22.50;99.90;;;;;;5049162;28;20423;-84
2021/07/25 08:48:13;;;;;;;12.33;7.90;;;22.90;99.90;;;;;;5103351;28;20449;-85
2021/07/25 08:51:00;;;;;;;12.90;8.27;;;22.70;99.90;;;;;;5082659;28;20406;-84
2021/07/25 08:53:27;;;;;;;11.00;7.97;;;22.30;99.90;;;;;;5064207;28;20416;-83
2021/07/25 08:55:54;;;;;;;10.27;8.37;;;22.90;99.90;;;;;;5099684;28;20401;-84
2021/07/25 08:58:22;;;;;;;9.07;7.80;;;22.60;99.90;;;;;;5103079;28;20401;-84
2021/07/25 09:00:50;;;;;;;11.80;9.10;;;22.60;99.90;;;;;;5101798;28;20393;-85
2021/07/25 09:03:20;;;;;;;14.93;8.67;;;22.30;99.90;;;;;;5100215;28;20397;-83
2021/07/25 09:05:47;;;;;;;9.10;8.20;;;22.30;99.90;;;;;;5043912;28;20419;-85
2021/07/25 09:08:13;;;;;;;10.33;7.97;;;22.60;99.90;;;;;;5055847;28;20475;-85
2021/07/25 09:10:42;;;;;;;11.47;8.50;;;22.90;99.90;;;;;;5081339;28;20605;-85
2021/07/25 09:13:07;;;;;;;12.20;7.83;;;22.60;99.90;;;;;;5032008;28;20760;-84
2021/07/25 09:15:35;;;;;;;12.40;8.90;;;22.80;99.90;;;;;;5100198;28;20399;-85
2021/07/25 09:18:03;;;;;;;11.33;8.80;;;23.00;99.90;;;;;;5080926;28;20178;-85
2021/07/25 09:20:40;;;;;;;11.70;9.30;;;22.80;99.90;;;;;;5076933;28;20480;-84
2021/07/25 09:23:11;;;;;;;9.13;8.23;;;22.90;99.90;;;;;;5094747;28;20825;-84
2021/07/25 09:25:44;;;;;;;10.40;9.00;;;22.50;99.90;;;;;;5064467;28;20423;-84
2021/07/25 09:28:13;;;;;;;11.03;7.90;;;22.70;99.90;;;;;;5030660;28;20460;-84
2021/07/25 09:30:41;;;;;;;10.60;7.67;;;22.80;99.90;;;;;;5099807;28;20396;-85
2021/07/25 09:33:27;;;;;;;10.43;8.37;;;23.20;99.90;;;;;;5065414;28;20903;-84
2021/07/25 09:36:02;;;;;;;9.87;7.63;;;23.30;99.90;;;;;;5081107;28;20428;-84
2021/07/25 09:38:28;;;;;;;8.37;7.57;;;23.20;99.90;;;;;;5099989;28;20396;-84
2021/07/25 09:40:54;;;;;;;8.93;8.03;;;23.60;99.90;;;;;;5098443;28;20452;-85
2021/07/25 09:43:24;;;;;;;10.23;7.80;;;23.90;99.90;;;;;;5098461;28;20403;-84
2021/07/25 09:45:58;;;;;;;12.73;8.00;;;24.40;99.90;;;;;;5080881;28;20219;-85
2021/07/25 09:48:33;;;;;;;8.60;7.70;;;24.10;99.90;;;;;;5098718;28;20491;-85
2021/07/25 09:51:02;;;;;;;7.93;7.10;;;24.40;99.90;;;;;;5100259;28;20391;-84
2021/07/25 09:53:51;;;;;;;7.97;7.17;;;24.50;99.90;;;;;;5099223;28;20388;-84
2021/07/25 09:56:20;;;;;;;11.87;7.20;;;25.10;99.90;;;;;;5045969;28;20417;-84
2021/07/25 09:58:46;;;;;;;9.80;7.37;;;25.30;99.90;;;;;;5099348;28;20450;-84
2021/07/25 10:01:42;;;;;;;9.47;8.07;;;25.10;99.90;;;;;;5099274;28;20848;-85
2021/07/25 10:04:15;;;;;;;10.77;8.97;;;24.20;99.90;;;;;;5099607;28;20163;-85
2021/07/25 10:06:43;;;;;;;8.20;7.20;;;24.20;99.90;;;;;;5099459;28;20392;-85
2021/07/25 10:09:10;;;;;;;8.60;7.80;;;23.80;99.90;;;;;;5099319;28;20456;-85
2021/07/25 10:11:36;;;;;;;8.77;7.90;;;24.30;99.90;;;;;;5098982;28;20854;-83
2021/07/25 10:14:03;;;;;;;7.70;6.40;;;24.70;99.90;;;;;;5099082;28;20400;-84
2021/07/25 10:16:29;;;;;;;8.40;7.57;;;24.80;99.90;;;;;;5099627;28;20412;-84
2021/07/25 10:18:57;;;;;;;8.17;6.47;;;25.30;99.90;;;;;;5101005;28;20397;-84
2021/07/25 10:21:24;;;;;;;8.63;7.63;;;25.70;99.90;;;;;;5100078;28;20159;-85
2021/07/25 10:23:55;;;;;;;9.53;7.13;;;25.20;99.90;;;;;;5098975;28;20411;-84
2021/07/25 10:26:25;;;;;;;8.33;7.53;;;25.00;99.90;;;;;;5100659;28;20435;-85
2021/07/25 10:28:54;;;;;;;8.57;7.63;;;24.90;99.90;;;;;;5040640;28;20478;-85
2021/07/25 10:31:23;;;;;;;10.27;7.63;;;25.40;99.90;;;;;;5050293;28;20989;-85
2021/07/25 10:33:50;;;;;;;7.93;6.50;;;24.90;99.90;;;;;;5040206;28;20422;-85
2021/07/25 10:36:19;;;;;;;7.43;6.67;;;25.20;99.90;;;;;;5052964;28;20390;-84
2021/07/25 10:38:46;;;;;;;7.43;6.63;;;24.80;99.90;;;;;;5060617;28;20405;-84
2021/07/25 10:41:16;;;;;;;7.90;7.20;;;24.80;99.90;;;;;;5061106;28;20390;-85
2021/07/25 10:43:42;;;;;;;8.10;7.27;;;24.60;99.90;;;;;;5044633;28;20456;-84
2021/07/25 10:46:20;;;;;;;7.57;6.87;;;24.80;99.90;;;;;;5044591;28;20436;-85
2021/07/25 10:49:09;;;;;;;8.00;7.23;;;24.60;99.90;;;;;;5060151;28;20517;-85
2021/07/25 10:51:37;;;;;;;10.20;7.80;;;25.10;99.90;;;;;;5061778;28;20702;-85
2021/07/25 10:54:33;;;;;;;8.63;7.77;;;24.90;99.90;;;;;;5050033;28;20402;-85
2021/07/25 10:57:14;;;;;;;6.90;6.20;;;25.00;99.90;;;;;;5045428;28;20481;-85
2021/07/25 10:59:58;;;;;;;8.80;7.07;;;24.90;99.90;;;;;;5044465;28;20412;-85
2021/07/25 11:02:51;;;;;;;7.80;7.10;;;25.30;99.90;;;;;;5103467;28;20471;-84
2021/07/25 11:05:18;;;;;;;14.10;6.93;;;25.10;99.90;;;;;;5047431;28;20471;-85
2021/07/25 11:07:57;;;;;;;8.03;6.77;;;25.10;99.90;;;;;;5061008;28;20403;-84
2021/07/25 11:10:31;;;;;;;11.87;7.10;;;25.10;99.90;;;;;;5060122;28;20406;-84
2021/07/25 11:13:15;;;;;;;7.13;6.53;;;25.10;99.90;;;;;;5060062;28;20430;-85
2021/07/25 11:15:42;;;;;;;6.90;6.30;;;25.30;99.90;;;;;;5039589;28;20426;-85
2021/07/25 11:18:11;;;;;;;7.70;6.70;;;25.60;99.90;;;;;;5015900;28;20475;-85
2021/07/25 11:21:01;;;;;;;9.77;6.70;;;25.80;99.90;;;;;;5019942;28;20408;-84
2021/07/25 11:23:33;;;;;;;7.37;6.60;;;26.00;99.90;;;;;;5021383;28;20392;-84
2021/07/25 11:26:19;;;;;;;9.73;7.27;;;25.90;99.90;;;;;;5020484;28;20432;-84
2021/07/25 11:28:44;;;;;;;10.53;6.80;;;25.60;99.90;;;;;;5019814;28;20467;-83
2021/07/25 11:31:12;;;;;;;10.43;6.83;;;25.90;99.90;;;;;;5020259;28;20499;-85
2021/07/25 11:33:46;;;;;;;7.60;6.90;;;25.80;99.90;;;;;;5003461;28;20295;-85
2021/07/25 11:36:17;;;;;;;8.87;6.90;;;26.00;99.90;;;;;;5039724;28;20413;-85
2021/07/25 11:38:55;;;;;;;11.30;8.30;;;25.80;99.90;;;;;;5037281;28;20411;-85
2021/07/25 11:41:24;;;;;;;8.57;7.10;;;25.80;99.90;;;;;;5035984;28;20462;-85
2021/07/25 11:43:54;;;;;;;7.93;7.13;;;26.10;99.90;;;;;;5059149;28;20469;-84
2021/07/25 11:46:29;;;;;;;8.80;7.10;;;26.30;99.90;;;;;;5042706;28;20846;-85
2021/07/25 11:49:15;;;;;;;10.23;8.23;;;26.10;99.90;;;;;;5061323;28;20455;-85
2021/07/25 11:51:48;;;;;;;6.53;5.93;;;25.80;99.90;;;;;;5102064;28;20399;-85
2021/07/25 11:54:19;;;;;;;7.77;6.80;;;25.90;99.90;;;;;;5065755;28;20421;-85
2021/07/25 11:57:00;;;;;;;9.10;8.07;;;26.10;99.90;;;;;;5102437;28;20439;-85
2021/07/25 11:59:27;;;;;;;8.33;7.27;;;25.80;99.90;;;;;;5080378;28;20928;-85
2021/07/25 12:01:55;;;;;;;7.77;6.73;;;25.50;99.90;;;;;;5079761;28;20412;-85
2021/07/25 12:04:24;;;;;;;8.23;7.40;;;25.40;99.90;;;;;;5107531;28;20393;-85
2021/07/25 12:07:02;;;;;;;9.23;7.10;;;25.50;99.90;;;;;;5091537;28;20162;-85
2021/07/25 12:09:29;;;;;;;8.17;7.23;;;25.40;99.90;;;;;;5074947;28;20542;-84
2021/07/25 12:12:11;;;;;;;8.50;7.80;;;25.10;99.90;;;;;;5088730;28;20407;-84
2021/07/25 12:14:40;;;;;;;8.23;7.43;;;25.10;99.90;;;;;;5101444;28;20401;-84
2021/07/25 12:17:06;;;;;;;7.60;6.90;;;25.50;99.90;;;;;;5066338;28;20396;-84
2021/07/25 12:19:34;;;;;;;6.73;6.10;;;25.40;99.90;;;;;;5101289;28;20389;-84
2021/07/25 12:22:09;;;;;;;7.10;6.47;;;25.40;99.90;;;;;;5083340;28;20861;-84
2021/07/25 12:24:37;;;;;;;7.90;6.83;;;25.40;99.90;;;;;;5101849;28;20401;-84
2021/07/25 12:27:04;;;;;;;7.53;6.80;;;25.20;99.90;;;;;;5100599;28;20404;-84
2021/07/25 12:29:47;;;;;;;7.67;6.87;;;25.30;99.90;;;;;;5083371;28;20800;-84
2021/07/25 12:32:29;;;;;;;8.17;6.13;;;25.50;99.90;;;;;;5082722;28;20802;-84
2021/07/25 12:35:14;;;;;;;7.60;6.90;;;25.70;99.90;;;;;;5065372;28;20420;-84
2021/07/25 12:37:44;;;;;;;10.50;7.30;;;25.70;99.90;;;;;;5066348;28;20772;-85
2021/07/25 12:40:13;;;;;;;10.50;8.90;;;25.90;99.90;;;;;;5099823;28;20467;-85
2021/07/25 12:42:45;;;;;;;9.43;8.00;;;25.90;99.90;;;;;;5100291;28;20389;-85
2021/07/25 12:45:45;;;;;;;8.30;7.30;;;25.70;99.90;;;;;;5099321;28;20527;-85
2021/07/25 12:48:29;;;;;;;6.63;6.03;;;25.90;99.90;;;;;;5103246;28;20440;-84
2021/07/25 12:51:10;;;;;;;6.70;6.10;;;26.10;99.90;;;;;;5111538;28;20406;-84
2021/07/25 12:53:56;;;;;;;8.37;6.27;;;26.20;99.90;;;;;;5113044;28;20438;-83